Сообщение об ошибке

  • Warning: ini_set(): Headers already sent. You cannot change the session module's ini settings at this time in drupal_environment_initialize() (line 699 of /home/a/auditpro/2.auditpro.beget.tech/public_html/st/includes/bootstrap.inc).
  • Warning: ini_set(): Headers already sent. You cannot change the session module's ini settings at this time in drupal_environment_initialize() (line 700 of /home/a/auditpro/2.auditpro.beget.tech/public_html/st/includes/bootstrap.inc).
  • Warning: ini_set(): Headers already sent. You cannot change the session module's ini settings at this time in drupal_environment_initialize() (line 701 of /home/a/auditpro/2.auditpro.beget.tech/public_html/st/includes/bootstrap.inc).
  • Warning: ini_set(): Headers already sent. You cannot change the session module's ini settings at this time in drupal_environment_initialize() (line 704 of /home/a/auditpro/2.auditpro.beget.tech/public_html/st/includes/bootstrap.inc).
  • Warning: ini_set(): Headers already sent. You cannot change the session module's ini settings at this time in drupal_environment_initialize() (line 706 of /home/a/auditpro/2.auditpro.beget.tech/public_html/st/includes/bootstrap.inc).
  • Warning: ini_set(): Headers already sent. You cannot change the session module's ini settings at this time in include_once() (line 290 of /home/a/auditpro/2.auditpro.beget.tech/public_html/st/sites/default/settings.php).
  • Warning: ini_set(): Headers already sent. You cannot change the session module's ini settings at this time in include_once() (line 291 of /home/a/auditpro/2.auditpro.beget.tech/public_html/st/sites/default/settings.php).
  • Warning: ini_set(): Headers already sent. You cannot change the session module's ini settings at this time in include_once() (line 299 of /home/a/auditpro/2.auditpro.beget.tech/public_html/st/sites/default/settings.php).
  • Warning: ini_set(): Headers already sent. You cannot change the session module's ini settings at this time in include_once() (line 306 of /home/a/auditpro/2.auditpro.beget.tech/public_html/st/sites/default/settings.php).
  • Warning: ini_set(): Headers already sent. You cannot change the session module's ini settings at this time in drupal_settings_initialize() (line 826 of /home/a/auditpro/2.auditpro.beget.tech/public_html/st/includes/bootstrap.inc).
  • Warning: ini_set(): Headers already sent. You cannot change the session module's ini settings at this time in drupal_settings_initialize() (line 835 of /home/a/auditpro/2.auditpro.beget.tech/public_html/st/includes/bootstrap.inc).
  • Warning: session_name(): Cannot change session name when headers already sent in drupal_settings_initialize() (line 838 of /home/a/auditpro/2.auditpro.beget.tech/public_html/st/includes/bootstrap.inc).

Шарья

СКИДКИ НА СМАРТФОНЫ!

Карта отелей и гостиниц, располагающихся рядом с аэропортом Шарья :

Шарья Костромская область 58° 23' 34.62" N, 45° 33' 15.5412" E
Код аэродрома ИКАО
UUBQ
Код аэродрома RU
УУБЯ
Координаты
N58.39295° E045.55432°
Превышение над уровнем моря
120
Основная полоса
16/34
Курс магнитный
160,3/340,3
Длина основной ВПП
650
Ширина основной ВПП
28
Покрытие основной ВПП
Твёрдое (асфальт)
Освещение ВПП
Нет
Тип: 
Аэродром
Класс аэродрома: 
Принадлежность: 
ГА
Статус: 
Действующий
Сайт: 
E-mail аэродрома: 
Страна: 
Россия
Регион: 
Костромская область
Город: 
Дополнительная информация: 
На аэродроме расположен пункт ПИО. Для прилета необходимо согласование с ОАО "Костромское Авиапредприятие" по тел. в Костроме (Сокеркино): +74942356110 (1-ый зам. Ген. директора Красногоров Анатолий Николаевич).

Скидки на навигаторы!

Найти трансфер

С помощью этой формы Вы можете найти трансфер из аэропорта Шарья в город, аэропорт или вокзал:

Погода в аэропортах:

Авиационная погода в Петропавловске

Регион: 
Погода METAR: 
UACP 301030Z 21005MPS 9999 -SN BKN048 M07/M10 Q1021 NOSIG RMK QFE753/1004
Время наблюдения
2023-01-30T10:30:00Z
Температура C
-7.0
Точка росы
-10.0
Направление ветра
210
Скорость ветра (узлы)
10
Метео видимость
6.21
Облачность
BKN
Нижняя граница облачности (футы)
4800
Явления погоды
-SN
Условия полета
VFR
Аэропорт подробнее: 
BKN – значительная (рассеянная, разорванная) облачность;
-SN – слабый снег;

Авиационная погода в Махачкале

Регион: 
Погода METAR: 
URML 301930Z 25002MPS 4200 BR NSC M00/M02 Q1015 R14/01//70 TEMPO 0600 FG BKN001 RMK QFE761/1015
Время наблюдения
2023-01-30T19:30:00Z
Температура C
0.0
Точка росы
-2.0
Направление ветра
250
Скорость ветра (узлы)
4
Метео видимость
2.61
Облачность
CLR
Нижняя граница облачности (футы)
Явления погоды
BR
Условия полета
IFR
Аэропорт подробнее: 
CLR — нет облаков ниже 3000 м
BR – дымка (видимость от 1 до 9 км);

Авиационная погода в Бухте Провидения

Погода METAR: 
UHMD 302000Z 15005MPS 1000 BR OVC008 M01/M02 Q1006 RMK QBB250 MT OBSC QFE753/1005
Время наблюдения
2023-01-30T20:00:00Z
Температура C
-1.0
Точка росы
-2.0
Направление ветра
150
Скорость ветра (узлы)
10
Метео видимость
0.62
Облачность
OVC
Нижняя граница облачности (футы)
800
Явления погоды
BR
Условия полета
LIFR
Аэропорт подробнее: 
OVC – сплошная облачность;
BR – дымка (видимость от 1 до 9 км);

Авиационная погода в Гомеле

Регион: 
Погода METAR: 
UMGG 301930Z 20006G09MPS 2800 -SHSN BLSN SCT009 OVC016CB M01/M02 Q1000 TEMPO 2000 SHSN
Время наблюдения
2023-01-30T19:30:00Z
Температура C
-1.0
Точка росы
-2.0
Направление ветра
200
Скорость ветра (узлы)
12
Метео видимость
1.74
Облачность
SCT
OVC
Нижняя граница облачности (футы)
900
1600
Явления погоды
-SHSN BLSN
Условия полета
IFR
Аэропорт подробнее: 
SCT – разбросанная отдельная облачность; OVC – сплошная облачность;
-SHSN - слабый ливневой снег, BLSN – метель низовая или общая;